createdAt,value
2018-08-30T00:02:26.172Z,13.13
2018-08-30T00:05:06.191Z,12.87
2018-08-30T00:07:33.333Z,11.83
2018-08-30T00:10:03.872Z,12.67
2018-08-30T00:12:37.707Z,12.13
2018-08-30T00:15:06.475Z,12.13
2018-08-30T00:17:34.887Z,12.60
2018-08-30T00:20:06.488Z,13.40
2018-08-30T00:22:34.790Z,12.70
2018-08-30T00:25:03.288Z,15.00
2018-08-30T00:27:31.733Z,13.97
2018-08-30T00:30:04.951Z,15.33
2018-08-30T00:32:36.366Z,16.03
2018-08-30T00:35:04.847Z,17.03
2018-08-30T00:37:33.173Z,17.60
2018-08-30T00:40:02.944Z,18.33
2018-08-30T00:42:34.489Z,18.03
2018-08-30T00:45:02.960Z,18.10
2018-08-30T00:47:31.443Z,18.13
2018-08-30T00:50:02.005Z,18.23
2018-08-30T00:52:28.677Z,18.50
2018-08-30T00:54:57.082Z,18.93
2018-08-30T00:57:28.065Z,18.20
2018-08-30T00:59:56.431Z,18.60
2018-08-30T01:02:29.867Z,17.90
2018-08-30T01:04:57.143Z,17.87
2018-08-30T01:07:28.519Z,17.33
2018-08-30T01:10:01.540Z,18.80
2018-08-30T01:12:32.040Z,18.17
2018-08-30T01:15:00.450Z,18.27
2018-08-30T01:17:28.954Z,20.07
2018-08-30T01:19:57.313Z,18.63
2018-08-30T01:22:28.336Z,19.77
2018-08-30T01:24:56.722Z,18.47
2018-08-30T01:27:25.000Z,18.37
2018-08-30T01:29:56.464Z,19.40
2018-08-30T01:32:24.846Z,20.33
2018-08-30T01:34:55.181Z,17.23
2018-08-30T01:37:25.043Z,18.13
2018-08-30T01:39:53.511Z,18.53
2018-08-30T01:42:21.923Z,17.77
2018-08-30T01:44:57.327Z,18.43
2018-08-30T01:47:25.875Z,17.03
2018-08-30T01:50:02.972Z,18.20
2018-08-30T01:52:53.490Z,19.70
2018-08-30T01:55:29.167Z,17.43
2018-08-30T01:58:00.325Z,17.00
2018-08-30T02:00:43.488Z,16.43
2018-08-30T02:03:12.920Z,16.23
2018-08-30T02:05:44.733Z,17.13
2018-08-30T02:08:14.065Z,15.70
2018-08-30T02:10:51.442Z,16.03
2018-08-30T02:13:42.066Z,16.17
2018-08-30T02:16:19.047Z,15.13
2018-08-30T02:18:52.677Z,16.10
2018-08-30T02:21:21.340Z,15.43
2018-08-30T02:23:52.917Z,15.30
2018-08-30T02:26:24.494Z,16.47
2018-08-30T02:28:55.664Z,14.77
2018-08-30T02:31:24.198Z,15.07
2018-08-30T02:33:52.557Z,14.77
2018-08-30T02:36:23.977Z,16.07
2018-08-30T02:38:52.241Z,14.87
2018-08-30T02:41:20.505Z,15.20
2018-08-30T02:43:51.554Z,15.77
2018-08-30T02:46:20.179Z,16.60
2018-08-30T02:48:48.706Z,16.20
2018-08-30T02:51:20.683Z,16.57
2018-08-30T02:53:53.176Z,17.77
2018-08-30T02:56:24.800Z,17.93
2018-08-30T02:58:53.213Z,18.03
2018-08-30T03:01:22.314Z,18.40
2018-08-30T03:03:55.435Z,18.27
2018-08-30T03:06:26.257Z,17.30
2018-08-30T03:08:56.838Z,19.20
2018-08-30T03:11:29.452Z,18.77
2018-08-30T03:13:55.432Z,19.20
2018-08-30T03:16:23.946Z,18.57
2018-08-30T03:18:52.544Z,19.10
2018-08-30T03:21:21.076Z,18.73
2018-08-30T03:23:49.421Z,17.43
2018-08-30T03:26:22.902Z,18.53
2018-08-30T03:28:51.592Z,18.73
2018-08-30T03:31:25.982Z,18.07
2018-08-30T03:33:57.470Z,17.27
2018-08-30T03:36:32.298Z,18.63
2018-08-30T03:39:00.812Z,18.10
2018-08-30T03:41:31.991Z,18.43
2018-08-30T03:44:00.785Z,18.17
2018-08-30T03:46:34.318Z,18.03
2018-08-30T03:49:05.620Z,18.50
2018-08-30T03:51:35.371Z,17.60
2018-08-30T03:54:02.555Z,18.20
2018-08-30T03:56:33.628Z,18.40
2018-08-30T03:59:08.754Z,19.13
2018-08-30T04:01:42.304Z,17.63
2018-08-30T04:04:10.930Z,17.73
2018-08-30T04:06:46.781Z,18.47
2018-08-30T04:09:17.647Z,18.13
2018-08-30T04:11:50.578Z,19.40
2018-08-30T04:14:19.008Z,17.97
2018-08-30T04:16:47.617Z,18.00
2018-08-30T04:19:20.948Z,17.80
2018-08-30T04:21:51.942Z,19.13
2018-08-30T04:24:23.479Z,18.60
2018-08-30T04:26:58.833Z,18.53
2018-08-30T04:29:25.015Z,19.20
2018-08-30T04:31:53.433Z,18.77
2018-08-30T04:34:21.986Z,19.37
2018-08-30T04:36:51.761Z,19.30
2018-08-30T04:39:21.257Z,18.63
2018-08-30T04:41:55.829Z,18.43
2018-08-30T04:44:24.948Z,19.20
2018-08-30T04:46:53.062Z,20.80
2018-08-30T04:49:21.292Z,19.07
2018-08-30T04:51:49.604Z,20.47
2018-08-30T04:55:09.920Z,19.40
2018-08-30T04:58:53.011Z,19.07
2018-08-30T05:05:19.445Z,20.57
2018-08-30T05:08:28.369Z,18.03
2018-08-30T05:11:18.233Z,19.20
2018-08-30T05:14:09.070Z,18.23
2018-08-30T06:03:03.159Z,16.20
2018-08-30T06:05:31.642Z,15.87
2018-08-30T06:08:00.320Z,17.90
2018-08-30T06:10:29.097Z,16.60
2018-08-30T06:12:57.640Z,15.83
2018-08-30T06:15:26.236Z,16.10
2018-08-30T06:17:54.772Z,15.43
2018-08-30T06:20:23.320Z,15.77
2018-08-30T06:22:51.890Z,14.30
2018-08-30T06:25:20.390Z,15.10
2018-08-30T06:27:48.960Z,15.53
2018-08-30T06:30:18.326Z,15.03
2018-08-30T06:32:45.835Z,15.40
2018-08-30T06:35:14.108Z,14.80
2018-08-30T06:37:42.400Z,16.07
2018-08-30T06:40:10.718Z,15.53
2018-08-30T06:42:39.004Z,16.07
2018-08-30T06:45:07.398Z,16.40
2018-08-30T06:47:35.660Z,16.10
2018-08-30T06:50:03.880Z,16.93
2018-08-30T06:52:32.182Z,15.87
2018-08-30T06:55:00.590Z,15.80
2018-08-30T06:57:28.840Z,15.83
2018-08-30T06:59:57.146Z,16.10
2018-08-30T07:02:25.404Z,15.20
2018-08-30T07:04:54.526Z,15.87
2018-08-30T07:07:22.812Z,16.03
2018-08-30T07:09:51.087Z,15.63
2018-08-30T07:12:19.484Z,15.90
2018-08-30T07:14:47.812Z,14.50
2018-08-30T07:17:16.022Z,16.07
2018-08-30T07:19:44.620Z,15.10
2018-08-30T07:22:12.916Z,15.00
2018-08-30T07:24:41.208Z,15.97
2018-08-30T07:27:09.492Z,15.37
2018-08-30T07:29:37.748Z,15.73
2018-08-30T07:32:06.639Z,15.20
2018-08-30T07:34:35.122Z,15.43
2018-08-30T07:37:03.388Z,14.50
2018-08-30T07:39:31.624Z,14.87
2018-08-30T07:42:00.071Z,14.17
2018-08-30T07:44:28.413Z,15.63
2018-08-30T07:46:56.609Z,14.33
2018-08-30T07:49:24.921Z,15.00
2018-08-30T07:51:53.316Z,14.83
2018-08-30T07:54:21.641Z,14.40
2018-08-30T07:56:50.104Z,14.80
2018-08-30T07:59:18.488Z,16.03
2018-08-30T08:01:46.956Z,15.27
2018-08-30T08:04:15.370Z,16.43
2018-08-30T08:06:43.856Z,17.13
2018-08-30T08:09:12.123Z,16.77
2018-08-30T08:11:40.401Z,17.03
2018-08-30T08:14:08.968Z,16.43
2018-08-30T08:16:37.294Z,18.23
2018-08-30T08:19:05.554Z,17.87
2018-08-30T08:21:33.848Z,17.67
2018-08-30T08:24:02.119Z,18.47
2018-08-30T08:26:30.375Z,17.13
2018-08-30T08:28:58.684Z,19.10
2018-08-30T08:31:26.948Z,17.73
2018-08-30T08:33:55.372Z,18.43
2018-08-30T08:36:23.601Z,19.37
2018-08-30T08:38:51.891Z,18.37
2018-08-30T08:41:20.195Z,17.90
2018-08-30T08:43:48.479Z,18.37
2018-08-30T08:46:16.805Z,16.33
2018-08-30T08:48:45.136Z,18.37
2018-08-30T08:51:13.415Z,18.53
2018-08-30T08:53:41.687Z,18.50
2018-08-30T08:56:09.932Z,19.87
2018-08-30T08:58:38.239Z,18.97
2018-08-30T09:01:06.806Z,18.30
2018-08-30T09:03:35.188Z,17.60
2018-08-30T09:06:03.682Z,18.80
2018-08-30T09:08:32.028Z,18.17
2018-08-30T09:11:00.170Z,18.47
2018-08-30T09:13:28.504Z,17.73
2018-08-30T09:15:56.799Z,16.63
2018-08-30T09:18:25.117Z,18.57
2018-08-30T09:20:53.473Z,17.87
2018-08-30T09:23:21.855Z,17.83
2018-08-30T09:25:50.106Z,19.83
2018-08-30T09:28:18.485Z,18.70
2018-08-30T09:30:46.924Z,18.00
2018-08-30T09:33:15.246Z,19.07
2018-08-30T09:35:43.565Z,18.13
2018-08-30T09:38:11.893Z,18.30
2018-08-30T09:40:40.272Z,18.70
2018-08-30T09:43:08.487Z,17.40
2018-08-30T09:45:36.949Z,18.83
2018-08-30T09:48:05.463Z,16.83
2018-08-30T09:50:33.715Z,17.47
2018-08-30T09:53:01.934Z,18.30
2018-08-30T09:55:30.173Z,18.37
2018-08-30T09:57:58.625Z,17.53
2018-08-30T10:00:44.651Z,18.00
2018-08-30T10:03:12.934Z,18.27
2018-08-30T10:05:41.216Z,20.83
2018-08-30T10:08:09.625Z,17.10
2018-08-30T10:10:37.843Z,16.77
2018-08-30T10:13:06.223Z,17.37
2018-08-30T10:15:34.420Z,16.57
2018-08-30T10:18:02.876Z,15.80
2018-08-30T10:20:31.208Z,16.63
2018-08-30T10:22:59.660Z,16.07
2018-08-30T10:25:27.986Z,16.43
2018-08-30T10:27:56.354Z,16.53
2018-08-30T10:30:24.607Z,16.60
2018-08-30T10:32:52.880Z,17.70
2018-08-30T10:35:21.167Z,14.93
2018-08-30T10:37:49.509Z,16.70
2018-08-30T10:40:18.040Z,15.90
2018-08-30T10:42:46.559Z,15.67
2018-08-30T10:45:14.718Z,16.20
2018-08-30T10:47:42.949Z,15.30
2018-08-30T10:50:11.287Z,15.20
2018-08-30T10:52:39.617Z,16.40
2018-08-30T10:55:07.949Z,18.23
2018-08-30T10:57:36.207Z,17.17
2018-08-30T11:00:04.641Z,17.33
2018-08-30T11:02:32.944Z,17.40
2018-08-30T11:05:01.196Z,16.53
2018-08-30T11:07:29.636Z,17.07
2018-08-30T11:09:57.966Z,17.57
2018-08-30T11:12:26.395Z,16.20
2018-08-30T11:14:54.535Z,15.53
2018-08-30T11:17:22.785Z,15.30
2018-08-30T11:19:51.114Z,15.77
2018-08-30T11:22:19.604Z,16.83
2018-08-30T11:24:48.074Z,15.93
2018-08-30T11:27:16.404Z,14.63
2018-08-30T11:29:44.683Z,14.07
2018-08-30T11:32:13.030Z,14.67
2018-08-30T11:34:41.389Z,13.20
2018-08-30T11:37:09.685Z,11.97
2018-08-30T11:39:37.961Z,11.93
2018-08-30T11:42:06.304Z,10.83
2018-08-30T11:44:34.566Z,10.77
2018-08-30T11:47:02.889Z,10.57
2018-08-30T11:49:31.205Z,10.50
2018-08-30T11:51:59.452Z,9.60
2018-08-30T11:54:27.769Z,9.80
2018-08-30T11:56:56.128Z,9.67
2018-08-30T11:59:24.363Z,9.50
2018-08-30T12:01:52.691Z,9.37
2018-08-30T12:04:20.949Z,8.40
2018-08-30T12:06:49.368Z,9.67
2018-08-30T12:09:17.573Z,10.07
2018-08-30T12:11:45.946Z,9.53
2018-08-30T12:14:14.153Z,9.50
2018-08-30T12:16:42.509Z,9.37
2018-08-30T12:19:10.965Z,9.90
2018-08-30T12:21:39.180Z,9.60
2018-08-30T12:24:13.372Z,10.17
2018-08-30T12:26:41.789Z,10.40
2018-08-30T12:29:15.364Z,9.77
2018-08-30T12:31:43.987Z,10.27
2018-08-30T12:34:12.277Z,11.20
2018-08-30T12:36:43.421Z,8.77
2018-08-30T12:39:13.564Z,9.03
2018-08-30T12:41:42.000Z,9.50
2018-08-30T12:44:10.581Z,9.40
2018-08-30T12:46:39.030Z,8.77
2018-08-30T12:49:07.344Z,9.30
2018-08-30T12:51:36.069Z,8.47
2018-08-30T12:54:04.235Z,8.90
2018-08-30T12:56:32.760Z,9.37
2018-08-30T12:59:17.361Z,8.40
2018-08-30T13:01:46.447Z,8.57
2018-08-30T13:04:15.023Z,9.67
2018-08-30T13:07:01.856Z,7.10
2018-08-30T13:09:30.144Z,6.80
2018-08-30T13:11:59.707Z,5.83
2018-08-30T13:14:28.420Z,6.20
2018-08-30T13:16:56.950Z,6.43
2018-08-30T13:19:25.603Z,7.63
2018-08-30T13:21:53.741Z,7.70
2018-08-30T13:24:22.357Z,8.20
2018-08-30T13:26:50.691Z,7.40
2018-08-30T13:29:19.225Z,8.10
2018-08-30T13:31:47.645Z,8.73
2018-08-30T13:34:16.510Z,9.03
2018-08-30T13:36:44.828Z,9.23
2018-08-30T13:39:13.783Z,9.60
2018-08-30T13:41:42.705Z,9.57
2018-08-30T13:44:11.780Z,9.93
2018-08-30T13:46:41.083Z,10.07
2018-08-30T13:49:10.109Z,9.43
2018-08-30T13:51:38.272Z,9.60
2018-08-30T13:54:06.599Z,9.40
2018-08-30T13:56:34.926Z,9.47
2018-08-30T13:59:03.363Z,9.27
2018-08-30T14:01:31.892Z,9.37
2018-08-30T14:04:00.173Z,9.30
2018-08-30T14:06:28.597Z,9.20
2018-08-30T14:08:57.101Z,7.83
2018-08-30T14:11:25.242Z,8.20
2018-08-30T14:13:53.606Z,8.30
2018-08-30T14:16:21.558Z,8.20
2018-08-30T14:18:50.251Z,8.67
2018-08-30T14:21:18.474Z,7.43
2018-08-30T14:23:46.826Z,7.53
2018-08-30T14:26:15.112Z,7.40
2018-08-30T14:28:43.464Z,7.13
2018-08-30T14:31:11.818Z,7.37
2018-08-30T14:33:40.131Z,7.80
2018-08-30T14:36:08.410Z,6.60
2018-08-30T14:38:36.760Z,6.27
2018-08-30T14:41:05.498Z,6.40
2018-08-30T14:43:33.585Z,6.07
2018-08-30T14:46:01.927Z,6.20
2018-08-30T14:48:30.150Z,5.83
2018-08-30T14:50:58.618Z,6.53
2018-08-30T14:53:27.079Z,5.90
2018-08-30T14:55:55.214Z,6.37
2018-08-30T14:58:23.542Z,6.30
2018-08-30T15:00:51.890Z,5.70
2018-08-30T15:03:20.126Z,4.67
2018-08-30T15:05:48.845Z,3.87
2018-08-30T15:08:17.018Z,3.77
2018-08-30T15:10:45.213Z,4.50
2018-08-30T15:13:13.801Z,4.10
2018-08-30T15:15:42.049Z,3.93
2018-08-30T15:18:10.351Z,4.33
2018-08-30T15:20:38.614Z,3.87
2018-08-30T15:23:07.490Z,3.20
2018-08-30T15:25:35.841Z,3.37
2018-08-30T15:28:04.606Z,4.63
2018-08-30T15:30:32.751Z,3.67
2018-08-30T15:33:01.000Z,2.93
2018-08-30T15:35:29.750Z,3.37
2018-08-30T15:45:08.588Z,2.90
2018-08-30T15:47:37.239Z,3.13
2018-08-30T15:50:05.977Z,3.43
2018-08-30T15:52:34.243Z,2.70
2018-08-30T15:55:02.530Z,3.10
2018-08-30T15:57:32.101Z,4.53
2018-08-30T16:00:06.392Z,4.60
2018-08-30T16:02:35.654Z,4.57
2018-08-30T16:05:13.426Z,3.37
2018-08-30T16:07:53.080Z,3.50
2018-08-30T16:10:50.794Z,4.67
2018-08-30T16:13:24.601Z,4.27
2018-08-30T16:16:02.199Z,3.03
2018-08-30T16:18:49.211Z,2.87
2018-08-30T16:24:09.566Z,3.80
2018-08-30T16:27:01.399Z,3.87
2018-08-30T16:33:38.742Z,2.90
2018-08-30T16:36:23.265Z,3.17
2018-08-30T16:38:50.339Z,3.80
2018-08-30T16:41:37.219Z,3.50
2018-08-30T16:44:10.553Z,3.00
2018-08-30T16:47:05.807Z,3.13
2018-08-30T16:49:41.790Z,3.93
2018-08-30T16:52:17.936Z,3.23
2018-08-30T16:55:01.925Z,3.53
2018-08-30T16:57:38.516Z,3.37
2018-08-30T17:00:10.000Z,2.90
2018-08-30T17:02:40.451Z,2.70
2018-08-30T17:05:15.663Z,4.00
2018-08-30T17:07:53.122Z,3.70
2018-08-30T17:10:21.990Z,3.90
2018-08-30T17:12:50.462Z,3.03
2018-08-30T17:15:19.213Z,2.77
2018-08-30T17:17:47.616Z,6.33
2018-08-30T17:20:37.248Z,4.60
2018-08-30T17:23:08.167Z,3.80
2018-08-30T17:25:36.817Z,2.60
2018-08-30T17:28:05.629Z,2.60
2018-08-30T17:30:33.957Z,2.10
2018-08-30T17:33:03.020Z,3.00
2018-08-30T17:35:31.208Z,2.70
2018-08-30T17:38:03.255Z,2.97
2018-08-30T17:40:31.473Z,4.13
2018-08-30T17:43:00.045Z,3.57
2018-08-30T17:45:31.416Z,4.53
2018-08-30T17:47:59.642Z,4.37
2018-08-30T17:50:28.173Z,4.53
2018-08-30T17:52:59.695Z,3.57
2018-08-30T17:55:28.350Z,3.53
2018-08-30T17:57:59.698Z,2.67
2018-08-30T18:00:28.307Z,2.93
2018-08-30T18:02:57.125Z,3.13
2018-08-30T18:05:25.830Z,2.83
2018-08-30T18:07:54.274Z,3.03
2018-08-30T18:10:22.718Z,2.90
2018-08-30T18:12:51.054Z,2.90
2018-08-30T18:15:20.930Z,3.70
2018-08-30T18:17:51.117Z,2.77
2018-08-30T18:20:23.724Z,2.60
2018-08-30T18:23:37.642Z,3.10
2018-08-30T18:26:12.597Z,3.27
2018-08-30T18:28:54.530Z,3.83
2018-08-30T18:31:52.347Z,5.30
2018-08-30T18:34:31.119Z,4.83
2018-08-30T18:37:11.856Z,4.57
2018-08-30T18:39:41.731Z,4.20
2018-08-30T18:42:12.929Z,3.80
2018-08-30T18:44:40.104Z,2.93
2018-08-30T18:47:08.570Z,2.97
2018-08-30T18:52:54.889Z,3.70
2018-08-30T18:55:27.436Z,3.00
2018-08-30T18:58:12.774Z,5.33
2018-08-30T19:05:20.071Z,3.33
2018-08-30T19:08:07.011Z,3.20
2018-08-30T19:10:41.897Z,3.53
2018-08-30T19:13:13.003Z,2.97
2018-08-30T19:16:06.472Z,4.17
2018-08-30T19:18:56.120Z,5.13
2018-08-30T19:21:30.274Z,3.67
2018-08-30T19:23:59.214Z,5.17
2018-08-30T19:26:32.809Z,3.03
2018-08-30T19:29:05.331Z,2.90
2018-08-30T19:31:43.247Z,2.37
2018-08-30T19:34:11.501Z,3.17
2018-08-30T19:36:39.734Z,3.40
2018-08-30T19:39:11.736Z,3.63
2018-08-30T19:41:42.895Z,2.67
2018-08-30T19:44:24.281Z,3.47
2018-08-30T19:46:52.898Z,2.30
2018-08-30T19:49:31.284Z,5.23
2018-08-30T19:51:57.936Z,4.17
2018-08-30T19:54:26.214Z,2.83
2018-08-30T19:56:54.621Z,2.70
2018-08-30T19:59:23.102Z,2.77
2018-08-30T20:01:51.520Z,2.50
2018-08-30T20:04:19.847Z,2.17
2018-08-30T20:06:48.279Z,2.70
2018-08-30T20:09:16.795Z,2.77
2018-08-30T20:11:45.076Z,2.20
2018-08-30T20:14:13.465Z,3.03
2018-08-30T20:16:41.799Z,3.00
2018-08-30T20:19:10.628Z,2.77
2018-08-30T20:21:41.794Z,2.40
2018-08-30T20:24:10.660Z,2.33
2018-08-30T20:26:38.899Z,2.13
2018-08-30T20:29:07.372Z,2.60
2018-08-30T20:31:35.757Z,2.53
2018-08-30T20:34:04.199Z,2.40
2018-08-30T20:36:35.720Z,2.67
2018-08-30T20:39:05.529Z,2.27
2018-08-30T20:41:34.047Z,2.30
2018-08-30T20:44:04.373Z,2.13
2018-08-30T20:46:32.778Z,2.83
2018-08-30T20:49:01.172Z,2.70
2018-08-30T20:51:29.718Z,2.37
2018-08-30T20:53:58.019Z,2.57
2018-08-30T20:56:26.318Z,2.33
2018-08-30T20:58:54.980Z,2.50
2018-08-30T21:01:25.510Z,2.60
2018-08-30T21:03:53.991Z,2.10
2018-08-30T21:06:22.362Z,2.10
2018-08-30T21:08:52.747Z,2.57
2018-08-30T21:11:25.591Z,2.23
2018-08-30T21:14:23.135Z,2.40
2018-08-30T21:16:54.105Z,1.87
2018-08-30T21:19:30.047Z,2.20
2018-08-30T21:22:14.746Z,1.90
2018-08-30T21:24:54.271Z,2.20
2018-08-30T21:27:43.193Z,2.17
2018-08-30T21:30:12.195Z,2.00
2018-08-30T21:33:10.410Z,2.37
2018-08-30T21:35:39.550Z,2.80
2018-08-30T21:38:23.668Z,2.20
2018-08-30T21:40:59.803Z,2.03
2018-08-30T21:43:52.443Z,2.60
2018-08-30T21:46:41.588Z,2.13
2018-08-30T21:49:52.249Z,3.10
2018-08-30T21:52:51.138Z,2.40
2018-08-30T21:55:38.475Z,2.63
2018-08-30T21:58:34.841Z,2.97
2018-08-30T22:04:23.626Z,2.60
2018-08-30T22:07:19.696Z,2.70
2018-08-30T22:10:29.087Z,3.47
2018-08-30T22:13:12.783Z,2.33
2018-08-30T22:16:13.971Z,2.00
2018-08-30T22:19:10.284Z,3.17
2018-08-30T22:22:15.729Z,2.30
2018-08-30T22:25:04.408Z,2.60
2018-08-30T22:28:17.446Z,2.40
2018-08-30T22:31:01.670Z,2.57
2018-08-30T22:34:01.498Z,2.10
2018-08-30T22:43:30.299Z,2.10
2018-08-30T22:46:11.585Z,2.50
2018-08-30T22:48:57.761Z,2.20
2018-08-30T22:51:51.414Z,2.30
2018-08-30T22:54:30.718Z,2.47
2018-08-30T22:57:27.327Z,2.17
2018-08-30T23:00:22.188Z,2.60
2018-08-30T23:03:05.350Z,2.07
2018-08-30T23:05:54.594Z,2.43
2018-08-30T23:08:59.565Z,2.33
2018-08-30T23:12:05.556Z,2.13
2018-08-30T23:14:51.296Z,2.13
2018-08-30T23:18:05.581Z,2.67
2018-08-30T23:20:52.616Z,2.47
2018-08-30T23:23:40.342Z,2.10
2018-08-30T23:26:17.628Z,2.40
2018-08-30T23:29:32.093Z,2.33
2018-08-30T23:32:19.441Z,2.20
2018-08-30T23:35:17.102Z,2.40
2018-08-30T23:37:51.547Z,2.30
2018-08-30T23:40:48.536Z,2.50
2018-08-30T23:43:23.566Z,2.50
2018-08-30T23:49:06.074Z,2.70
2018-08-30T23:52:02.157Z,2.37
2018-08-30T23:54:55.674Z,2.60
2018-08-30T23:57:44.561Z,1.90
